Time;durP1;ratioP1;P1;durP2;ratioP2;P2;SDS_P1;SDS_P2;PMS_P1;PMS_P2;Temp;Humidity;BMP_temperature;BMP_pressure;BME280_temperature;BME280_humidity;BME280_pressure;Samples;Min_cycle;Max_cycle;Signal;HPM_P1;HPM_P2
2021/03/15 00:02:05;;;;;;;13.30;3.20;;;5.60;1.00;;;;;;5137712;27;20496;-64
2021/03/15 00:04:30;;;;;;;7.03;2.50;;;5.50;1.00;;;;;;5137909;27;20183;-63
2021/03/15 00:06:56;;;;;;;6.57;2.60;;;5.40;1.00;;;;;;5137571;27;20631;-63
2021/03/15 00:09:21;;;;;;;26.67;12.50;;;5.60;1.00;;;;;;5137007;27;20329;-64
2021/03/15 00:11:47;;;;;;;4.83;2.60;;;5.60;1.00;;;;;;5137310;27;20240;-65
2021/03/15 00:14:13;;;;;;;5.10;1.97;;;5.60;1.00;;;;;;5137335;27;20259;-64
2021/03/15 00:16:39;;;;;;;11.63;3.17;;;5.50;1.00;;;;;;5137078;27;20439;-61
2021/03/15 00:19:04;;;;;;;11.37;2.80;;;5.60;1.00;;;;;;5133025;27;20190;-62
2021/03/15 00:21:30;;;;;;;14.40;3.50;;;5.60;1.00;;;;;;5134623;27;20187;-64
2021/03/15 00:23:59;;;;;;;9.17;3.10;;;5.60;1.00;;;;;;5136831;27;20196;-63
2021/03/15 00:26:27;;;;;;;11.95;3.72;;;5.60;1.00;;;;;;5136288;27;20199;-62
2021/03/15 00:28:52;;;;;;;9.68;3.00;;;5.70;1.00;;;;;;5137158;27;20186;-65
2021/03/15 00:31:18;;;;;;;8.17;2.67;;;5.70;1.00;;;;;;5136761;27;20180;-64
2021/03/15 00:33:43;;;;;;;5.67;2.70;;;5.50;1.00;;;;;;5137004;27;20238;-63
2021/03/15 00:36:09;;;;;;;7.90;3.57;;;5.40;1.00;;;;;;5135825;27;20183;-65
2021/03/15 00:38:35;;;;;;;13.27;4.87;;;5.40;1.00;;;;;;5137274;27;20738;-61
2021/03/15 00:41:02;;;;;;;8.20;2.90;;;5.30;1.00;;;;;;5137448;27;20755;-61
2021/03/15 00:43:28;;;;;;;6.22;3.10;;;5.20;1.00;;;;;;5137080;27;20646;-64
2021/03/15 00:45:53;;;;;;;11.20;3.13;;;5.10;1.00;;;;;;5137417;27;20449;-62
2021/03/15 00:48:19;;;;;;;12.20;3.00;;;5.10;1.00;;;;;;5137405;27;20599;-65
2021/03/15 00:50:45;;;;;;;9.13;2.97;;;5.00;1.00;;;;;;5135981;27;20206;-65
2021/03/15 00:53:10;;;;;;;4.27;2.23;;;5.10;1.00;;;;;;5136989;27;20229;-65
2021/03/15 00:55:36;;;;;;;7.30;3.27;;;5.00;1.00;;;;;;5137070;27;20187;-65
2021/03/15 00:58:03;;;;;;;8.70;2.55;;;5.10;1.00;;;;;;5136420;27;20509;-62
2021/03/15 01:00:35;;;;;;;4.88;2.40;;;5.20;1.00;;;;;;5136416;27;20254;-60
2021/03/15 01:03:00;;;;;;;12.57;2.58;;;5.30;1.00;;;;;;5137630;27;20185;-62
2021/03/15 01:05:34;;;;;;;7.23;2.00;;;5.20;1.00;;;;;;5136533;27;20242;-61
2021/03/15 01:08:05;;;;;;;4.35;2.20;;;5.30;1.00;;;;;;5137296;27;20473;-64
2021/03/15 01:10:35;;;;;;;7.70;1.90;;;5.30;1.00;;;;;;5135510;27;20238;-65
2021/03/15 01:13:01;;;;;;;4.25;2.20;;;5.30;1.00;;;;;;5137233;27;20172;-65
2021/03/15 01:15:27;;;;;;;9.40;2.15;;;5.30;1.00;;;;;;5136175;27;20187;-65
2021/03/15 01:17:53;;;;;;;5.23;1.83;;;5.40;1.00;;;;;;5136675;27;20174;-65
2021/03/15 01:20:21;;;;;;;7.23;2.03;;;5.40;1.00;;;;;;5136888;27;20662;-67
2021/03/15 01:22:46;;;;;;;10.45;2.15;;;5.40;1.00;;;;;;5136272;27;20209;-61
2021/03/15 01:25:13;;;;;;;6.47;2.80;;;5.40;1.00;;;;;;5136272;27;20172;-61
2021/03/15 01:27:39;;;;;;;5.40;3.55;;;5.40;1.00;;;;;;5136400;27;20197;-65
2021/03/15 01:30:13;;;;;;;13.23;3.40;;;5.40;1.00;;;;;;5136270;27;20255;-61
2021/03/15 01:32:41;;;;;;;4.65;3.30;;;5.40;1.00;;;;;;5135917;27;20507;-64
2021/03/15 01:35:08;;;;;;;5.72;2.70;;;5.50;1.00;;;;;;5135296;27;20215;-60
2021/03/15 01:37:35;;;;;;;9.57;3.35;;;5.50;1.00;;;;;;5134767;27;20179;-65
2021/03/15 01:40:00;;;;;;;5.38;2.95;;;5.40;1.00;;;;;;5136586;27;20517;-62
2021/03/15 01:42:27;;;;;;;8.03;3.80;;;5.30;1.00;;;;;;5136500;27;20175;-63
2021/03/15 01:44:55;;;;;;;8.88;3.97;;;5.30;1.00;;;;;;5136246;27;20186;-64
2021/03/15 01:47:23;;;;;;;10.30;3.40;;;5.30;1.00;;;;;;5136297;27;20216;-59
2021/03/15 01:49:51;;;;;;;12.20;4.15;;;5.30;1.00;;;;;;5136946;27;20187;-65
2021/03/15 01:52:17;;;;;;;11.75;3.83;;;5.30;2.10;;;;;;5135892;27;20186;-66
2021/03/15 01:54:43;;;;;;;25.90;4.32;;;5.40;6.40;;;;;;5135661;27;20436;-61
2021/03/15 01:57:09;;;;;;;7.10;3.10;;;5.30;1.00;;;;;;5136468;27;20192;-61
2021/03/15 01:59:35;;;;;;;12.80;3.70;;;5.40;1.00;;;;;;5135747;28;20373;-62
2021/03/15 02:02:01;;;;;;;9.30;3.88;;;5.40;1.00;;;;;;5136940;27;20431;-64
2021/03/15 02:04:27;;;;;;;11.00;4.45;;;5.40;1.00;;;;;;5135680;28;20649;-62
2021/03/15 02:06:53;;;;;;;8.90;4.03;;;5.40;1.00;;;;;;5136303;28;20195;-64
2021/03/15 02:09:19;;;;;;;6.65;4.32;;;5.50;1.00;;;;;;5136382;27;20187;-71
2021/03/15 02:12:06;;;;;;;7.15;4.28;;;5.40;1.00;;;;;;5136235;27;20180;-62
2021/03/15 02:15:06;;;;;;;9.20;4.70;;;5.40;1.00;;;;;;5136816;27;20218;-61
2021/03/15 02:17:46;;;;;;;6.75;4.40;;;5.30;2.70;;;;;;5136657;27;20175;-65
2021/03/15 02:20:33;;;;;;;15.45;5.07;;;5.30;14.00;;;;;;5136274;27;20227;-62
2021/03/15 02:23:18;;;;;;;13.00;4.47;;;5.30;23.50;;;;;;5136249;28;20171;-63
2021/03/15 02:26:11;;;;;;;11.05;4.88;;;5.30;22.00;;;;;;5137142;27;20663;-63
2021/03/15 02:29:05;;;;;;;6.63;4.45;;;5.30;33.60;;;;;;5136321;28;20191;-65
2021/03/15 02:31:40;;;;;;;12.05;4.30;;;5.30;37.80;;;;;;5136556;28;20175;-67
2021/03/15 02:34:21;;;;;;;11.20;6.47;;;5.20;54.30;;;;;;5135958;28;20194;-60
2021/03/15 02:36:52;;;;;;;6.93;5.85;;;5.20;78.50;;;;;;5137027;28;20174;-61
2021/03/15 02:39:22;;;;;;;10.02;5.10;;;5.30;75.60;;;;;;5135749;27;20167;-62
2021/03/15 02:41:51;;;;;;;10.65;5.80;;;5.30;86.10;;;;;;5123725;28;20187;-65
2021/03/15 02:44:18;;;;;;;11.32;5.40;;;5.30;77.80;;;;;;5135674;27;20216;-63
2021/03/15 02:46:46;;;;;;;8.95;5.35;;;5.30;73.40;;;;;;5136015;27;20241;-63
2021/03/15 02:49:14;;;;;;;10.82;5.30;;;5.20;81.30;;;;;;5137643;27;20199;-64
2021/03/15 02:51:42;;;;;;;11.13;5.43;;;5.30;86.20;;;;;;5139660;27;20175;-63
2021/03/15 02:54:10;;;;;;;13.02;5.30;;;5.20;90.20;;;;;;5139561;27;20267;-64
2021/03/15 02:56:41;;;;;;;9.38;6.85;;;5.20;89.80;;;;;;5139522;27;20509;-63
2021/03/15 02:59:08;;;;;;;13.68;6.28;;;5.30;91.60;;;;;;5140173;27;20201;-64
2021/03/15 03:01:42;;;;;;;14.50;6.22;;;5.30;91.10;;;;;;5139631;27;20186;-65
2021/03/15 03:04:10;;;;;;;13.38;5.93;;;5.30;70.00;;;;;;5139407;27;20179;-66
2021/03/15 03:06:37;;;;;;;7.15;5.05;;;5.30;71.90;;;;;;5139073;27;20343;-64
2021/03/15 03:09:07;;;;;;;16.92;6.55;;;5.20;64.30;;;;;;5139333;27;20170;-65
2021/03/15 03:11:33;;;;;;;9.40;6.22;;;5.30;72.50;;;;;;5138830;27;20496;-61
2021/03/15 03:14:00;;;;;;;11.63;6.40;;;5.40;67.10;;;;;;5138674;27;20713;-61
2021/03/15 03:16:30;;;;;;;10.63;5.57;;;5.40;57.70;;;;;;5138475;27;20178;-63
2021/03/15 03:18:57;;;;;;;7.13;5.10;;;5.30;38.20;;;;;;5138623;27;20175;-61
2021/03/15 03:21:25;;;;;;;9.40;5.43;;;5.30;50.50;;;;;;5138739;27;20171;-61
2021/03/15 03:23:53;;;;;;;12.32;6.47;;;5.30;46.50;;;;;;5139383;27;20200;-60
2021/03/15 03:26:24;;;;;;;8.35;6.10;;;5.20;49.40;;;;;;5139111;27;20242;-63
2021/03/15 03:28:52;;;;;;;19.42;6.20;;;5.20;56.90;;;;;;5138410;27;20186;-61
2021/03/15 03:31:19;;;;;;;10.68;6.55;;;5.30;64.80;;;;;;5138340;27;20672;-65
2021/03/15 03:33:45;;;;;;;16.52;7.20;;;5.30;56.10;;;;;;5138367;27;20202;-67
2021/03/15 03:36:11;;;;;;;13.63;7.05;;;5.20;46.20;;;;;;5138717;27;20510;-61
2021/03/15 03:38:38;;;;;;;23.65;10.77;;;5.20;63.40;;;;;;5138721;27;20706;-63
2021/03/15 03:41:04;;;;;;;14.05;5.95;;;5.20;82.80;;;;;;5138349;27;20517;-65
2021/03/15 03:43:29;;;;;;;11.43;7.33;;;5.20;93.60;;;;;;5138370;27;20187;-64
2021/03/15 03:45:55;;;;;;;12.73;5.70;;;5.20;95.80;;;;;;5138799;27;20261;-62
2021/03/15 03:48:20;;;;;;;9.80;6.20;;;5.20;97.00;;;;;;5138706;27;20177;-61
2021/03/15 03:50:46;;;;;;;7.00;4.80;;;5.20;98.90;;;;;;5138240;27;20179;-60
2021/03/15 03:53:22;;;;;;;11.93;5.50;;;5.30;99.90;;;;;;5137050;27;20194;-61
2021/03/15 03:55:51;;;;;;;9.90;4.95;;;5.30;94.70;;;;;;5137653;27;20194;-60
2021/03/15 03:58:19;;;;;;;13.65;5.40;;;5.20;73.30;;;;;;5137964;27;20223;-63
2021/03/15 04:00:46;;;;;;;9.43;4.88;;;5.10;65.10;;;;;;5137393;27;20206;-61
2021/03/15 04:03:19;;;;;;;9.38;4.85;;;5.20;76.20;;;;;;5136594;27;20225;-61
2021/03/15 04:05:52;;;;;;;6.20;4.38;;;5.10;77.40;;;;;;5138074;27;20653;-61
2021/03/15 04:08:59;;;;;;;7.47;3.95;;;5.10;87.90;;;;;;5133971;27;20221;-60
2021/03/15 04:11:29;;;;;;;9.05;4.05;;;5.10;90.70;;;;;;5126356;27;20631;-61
2021/03/15 04:13:55;;;;;;;9.15;4.30;;;5.20;92.30;;;;;;5138080;27;20237;-60
2021/03/15 04:16:33;;;;;;;7.30;4.60;;;5.20;76.80;;;;;;5138494;27;20179;-58
2021/03/15 04:19:03;;;;;;;9.40;4.10;;;5.20;55.50;;;;;;5138500;27;20568;-59
2021/03/15 04:21:30;;;;;;;16.98;4.30;;;5.10;53.60;;;;;;5138240;27;20217;-62
2021/03/15 04:23:58;;;;;;;7.43;3.95;;;5.00;54.60;;;;;;5138070;27;20190;-59
2021/03/15 04:26:25;;;;;;;8.68;4.75;;;5.00;62.50;;;;;;5138321;27;20190;-59
2021/03/15 04:28:53;;;;;;;4.03;2.90;;;5.00;83.40;;;;;;5137087;27;20262;-60
2021/03/15 04:31:20;;;;;;;7.85;3.75;;;5.00;91.00;;;;;;5137735;27;20642;-59
2021/03/15 04:33:46;;;;;;;8.10;4.65;;;5.00;91.20;;;;;;5137950;27;20199;-59
2021/03/15 04:36:17;;;;;;;4.28;2.88;;;4.80;87.10;;;;;;5137958;27;20166;-62
2021/03/15 04:38:44;;;;;;;4.13;2.35;;;4.70;99.90;;;;;;5137783;27;20552;-61
2021/03/15 04:41:10;;;;;;;5.75;3.00;;;4.70;99.90;;;;;;5138178;27;20179;-61
2021/03/15 04:43:38;;;;;;;4.65;2.85;;;4.70;99.90;;;;;;5136461;27;20175;-61
2021/03/15 04:46:05;;;;;;;6.80;2.90;;;4.70;99.90;;;;;;5138132;27;20186;-63
2021/03/15 04:48:31;;;;;;;3.85;3.05;;;4.70;99.90;;;;;;5137872;27;20189;-63
2021/03/15 04:51:02;;;;;;;6.63;3.53;;;4.80;99.90;;;;;;5138164;27;20273;-64
2021/03/15 04:53:29;;;;;;;7.70;3.13;;;4.90;99.90;;;;;;5137452;27;20234;-64
2021/03/15 04:56:02;;;;;;;5.13;2.50;;;4.80;99.90;;;;;;5137681;27;20194;-65
2021/03/15 04:58:30;;;;;;;5.35;3.00;;;4.80;99.90;;;;;;5137769;27;20167;-63
2021/03/15 05:00:57;;;;;;;4.28;2.80;;;4.90;99.90;;;;;;5137692;27;20186;-67
2021/03/15 05:03:24;;;;;;;6.28;2.72;;;4.90;99.90;;;;;;5137516;27;20240;-64
2021/03/15 05:05:54;;;;;;;2.45;2.20;;;5.00;99.60;;;;;;5136443;27;20183;-64
2021/03/15 05:08:24;;;;;;;3.97;3.10;;;5.00;78.90;;;;;;5137422;27;20183;-64
2021/03/15 05:10:52;;;;;;;5.13;2.13;;;4.90;46.40;;;;;;5137514;27;20179;-66
2021/03/15 05:13:18;;;;;;;3.08;2.22;;;5.00;46.10;;;;;;5137222;27;20174;-68
2021/03/15 05:15:45;;;;;;;3.20;2.22;;;5.00;36.70;;;;;;5137802;27;20541;-63
2021/03/15 05:18:16;;;;;;;3.05;2.20;;;5.10;35.00;;;;;;5137504;27;20218;-64
2021/03/15 05:20:44;;;;;;;3.30;2.95;;;5.10;28.60;;;;;;5136501;27;20187;-64
2021/03/15 05:23:11;;;;;;;7.55;3.22;;;5.20;32.80;;;;;;5136464;27;20175;-64
2021/03/15 05:25:42;;;;;;;2.25;1.95;;;5.10;2.10;;;;;;5136933;27;20193;-64
2021/03/15 05:28:10;;;;;;;4.07;2.75;;;5.00;15.10;;;;;;5136479;27;20221;-63
2021/03/15 05:30:36;;;;;;;4.07;3.15;;;5.00;28.80;;;;;;5136621;27;20179;-64
2021/03/15 05:33:05;;;;;;;3.88;2.58;;;5.00;42.50;;;;;;5137061;27;20199;-64
2021/03/15 05:35:31;;;;;;;6.00;2.97;;;5.00;48.60;;;;;;5136965;27;20175;-68
2021/03/15 05:37:58;;;;;;;3.97;2.83;;;5.00;53.60;;;;;;5136345;27;20648;-63
2021/03/15 05:40:25;;;;;;;4.97;2.78;;;5.10;58.90;;;;;;5136376;27;20524;-64
2021/03/15 05:43:04;;;;;;;4.43;3.30;;;5.30;48.20;;;;;;5135771;27;20216;-63
2021/03/15 05:45:47;;;;;;;3.47;2.40;;;5.30;16.90;;;;;;5136004;28;20170;-63
2021/03/15 05:48:45;;;;;;;11.23;3.45;;;5.10;14.30;;;;;;5136264;27;20166;-65
2021/03/15 05:51:27;;;;;;;6.55;3.42;;;5.10;33.70;;;;;;5136842;27;20612;-64
2021/03/15 05:54:16;;;;;;;6.20;2.80;;;5.10;37.40;;;;;;5136276;27;20628;-64
2021/03/15 05:56:53;;;;;;;4.45;3.20;;;5.20;38.80;;;;;;5136806;27;20174;-68
2021/03/15 05:59:56;;;;;;;3.63;2.75;;;5.10;42.50;;;;;;5134382;28;20213;-63
2021/03/15 06:02:42;;;;;;;4.32;2.75;;;5.20;50.20;;;;;;5130319;28;20192;-63
2021/03/15 06:05:18;;;;;;;6.07;3.03;;;5.10;48.20;;;;;;5136052;28;20182;-62
2021/03/15 06:07:49;;;;;;;9.15;4.32;;;5.20;67.80;;;;;;5136513;27;20214;-64
2021/03/15 06:10:36;;;;;;;3.80;2.70;;;5.20;64.60;;;;;;5136875;27;20178;-72
2021/03/15 06:13:13;;;;;;;7.00;4.40;;;5.30;57.50;;;;;;5112837;28;20199;-64
2021/03/15 06:15:46;;;;;;;4.32;3.05;;;5.40;34.00;;;;;;5136996;27;20205;-65
2021/03/15 06:18:14;;;;;;;6.05;3.17;;;5.40;12.60;;;;;;5136699;27;20537;-63
2021/03/15 06:20:42;;;;;;;8.20;3.67;;;5.40;1.00;;;;;;5136298;27;20214;-63
2021/03/15 06:23:09;;;;;;;7.65;3.47;;;5.40;1.00;;;;;;5135864;27;20603;-63
2021/03/15 06:25:35;;;;;;;7.05;3.30;;;5.50;1.00;;;;;;5139934;27;20172;-65
2021/03/15 06:28:02;;;;;;;11.48;3.80;;;5.50;1.00;;;;;;5140203;27;20178;-65
2021/03/15 06:30:28;;;;;;;8.43;3.67;;;5.60;1.00;;;;;;5140038;27;20506;-67
2021/03/15 06:32:56;;;;;;;4.60;2.50;;;5.70;1.00;;;;;;5139662;27;20163;-66
2021/03/15 06:35:27;;;;;;;10.27;2.97;;;5.80;1.00;;;;;;5138935;27;20465;-59
2021/03/15 06:37:54;;;;;;;4.43;2.50;;;5.90;1.00;;;;;;5140059;27;20500;-60
2021/03/15 06:40:20;;;;;;;5.18;3.40;;;6.00;1.00;;;;;;5134192;27;20203;-60
2021/03/15 06:42:48;;;;;;;9.63;3.28;;;6.30;1.00;;;;;;5135278;27;20272;-60
2021/03/15 06:45:15;;;;;;;6.68;3.63;;;6.70;1.00;;;;;;5131626;27;20286;-59
2021/03/15 06:47:42;;;;;;;4.25;2.63;;;6.60;99.90;;;;;;5138531;27;20215;-60
2021/03/15 06:50:12;;;;;;;6.95;3.65;;;6.60;99.90;;;;;;5123591;27;20180;-60
2021/03/15 06:52:54;;;;;;;5.90;2.47;;;6.50;99.90;;;;;;5133548;27;20532;-60
2021/03/15 06:55:23;;;;;;;6.60;3.00;;;6.30;99.90;;;;;;5131823;27;20207;-60
2021/03/15 06:57:52;;;;;;;8.52;2.55;;;6.40;1.00;;;;;;5138212;27;20188;-60
2021/03/15 07:00:20;;;;;;;5.95;2.80;;;6.20;1.00;;;;;;5111705;27;20508;-59
2021/03/15 07:02:56;;;;;;;6.88;2.75;;;6.30;1.00;;;;;;5138049;27;20179;-60
2021/03/15 07:05:22;;;;;;;6.30;2.65;;;6.30;1.00;;;;;;5138287;27;20229;-60
2021/03/15 07:07:53;;;;;;;3.33;2.57;;;6.20;1.00;;;;;;5130161;27;20573;-60
2021/03/15 07:10:33;;;;;;;7.10;3.05;;;6.20;1.00;;;;;;5130472;27;20188;-61
2021/03/15 07:13:16;;;;;;;4.53;2.30;;;6.30;1.00;;;;;;5132844;27;20244;-60
2021/03/15 07:15:50;;;;;;;6.07;2.83;;;6.20;1.00;;;;;;5138101;27;20240;-60
2021/03/15 07:18:26;;;;;;;4.95;2.75;;;6.10;1.00;;;;;;5130815;27;20183;-60
2021/03/15 07:20:57;;;;;;;6.18;2.80;;;6.10;1.00;;;;;;5138937;27;20548;-60
2021/03/15 07:23:41;;;;;;;5.28;2.40;;;6.00;1.00;;;;;;5137736;27;20461;-60
2021/03/15 07:26:20;;;;;;;8.77;3.17;;;6.00;1.00;;;;;;5138733;27;20174;-64
2021/03/15 07:28:47;;;;;;;7.07;2.90;;;5.90;1.00;;;;;;5134802;27;20195;-62
2021/03/15 07:31:27;;;;;;;4.50;2.80;;;6.00;23.40;;;;;;5129338;27;20200;-62
2021/03/15 07:33:58;;;;;;;6.78;3.78;;;6.20;32.80;;;;;;5129567;27;20205;-63
2021/03/15 07:36:29;;;;;;;5.22;3.05;;;6.30;1.00;;;;;;5138091;27;20699;-60
2021/03/15 07:38:56;;;;;;;7.60;2.83;;;6.40;1.00;;;;;;5133634;27;20179;-61
2021/03/15 07:41:22;;;;;;;5.95;3.00;;;6.40;1.00;;;;;;5129050;27;20240;-61
2021/03/15 07:43:49;;;;;;;6.97;3.58;;;6.40;1.00;;;;;;5136262;27;20608;-62
2021/03/15 07:46:27;;;;;;;7.28;3.47;;;6.40;1.00;;;;;;5131710;27;20227;-61
2021/03/15 07:48:58;;;;;;;6.63;3.40;;;6.30;1.00;;;;;;5136056;27;20219;-60
2021/03/15 07:51:32;;;;;;;8.07;3.70;;;6.10;1.00;;;;;;5123607;27;20196;-63
2021/03/15 07:54:10;;;;;;;2.42;1.85;;;6.10;42.70;;;;;;5137743;27;20203;-70
2021/03/15 07:56:37;;;;;;;3.20;2.63;;;6.00;86.60;;;;;;5138730;27;20293;-63
2021/03/15 07:59:04;;;;;;;6.38;2.83;;;5.80;99.90;;;;;;5130595;27;20192;-65
2021/03/15 08:01:30;;;;;;;4.78;3.08;;;5.90;99.90;;;;;;5136325;27;20188;-62
2021/03/15 08:03:56;;;;;;;8.93;2.95;;;6.00;99.90;;;;;;5130675;27;20862;-62
2021/03/15 08:06:23;;;;;;;8.52;3.58;;;5.90;99.90;;;;;;5135857;27;20201;-62
2021/03/15 08:08:49;;;;;;;4.38;2.13;;;6.10;99.90;;;;;;5137238;27;20188;-62
2021/03/15 08:11:20;;;;;;;10.10;3.03;;;6.10;99.90;;;;;;5134015;27;20793;-62
2021/03/15 08:13:52;;;;;;;4.28;3.35;;;6.10;99.90;;;;;;5127666;27;20263;-63
2021/03/15 08:16:22;;;;;;;11.52;2.90;;;6.10;99.90;;;;;;5135505;27;20180;-62
2021/03/15 08:18:51;;;;;;;3.85;3.40;;;6.20;99.90;;;;;;5134408;27;20605;-63
2021/03/15 08:21:36;;;;;;;9.80;4.43;;;6.30;99.90;;;;;;5135684;27;20190;-64
2021/03/15 08:24:03;;;;;;;5.90;4.05;;;6.40;99.90;;;;;;5129724;27;20179;-67
2021/03/15 08:26:30;;;;;;;2.83;2.50;;;6.60;99.90;;;;;;5139228;27;20195;-65
2021/03/15 08:28:58;;;;;;;7.32;3.15;;;6.60;82.70;;;;;;5131131;27;20189;-65
2021/03/15 08:31:40;;;;;;;7.90;3.28;;;6.60;48.50;;;;;;5141506;27;20196;-63
2021/03/15 08:34:09;;;;;;;5.35;3.15;;;6.60;29.40;;;;;;5129103;27;20529;-61
2021/03/15 08:36:42;;;;;;;7.63;3.13;;;6.70;39.40;;;;;;5129335;27;20182;-62
2021/03/15 08:39:31;;;;;;;9.20;3.47;;;6.80;35.00;;;;;;5121834;27;20184;-63
2021/03/15 08:42:08;;;;;;;7.00;2.97;;;6.90;60.70;;;;;;5146457;27;20198;-63
2021/03/15 08:44:48;;;;;;;10.55;3.42;;;7.00;5.90;;;;;;5153591;27;20575;-63
2021/03/15 08:47:52;;;;;;;6.57;2.83;;;7.00;21.80;;;;;;5147466;27;20188;-62
2021/03/15 08:50:33;;;;;;;4.13;2.50;;;7.10;46.70;;;;;;5144153;27;20247;-62
2021/03/15 08:53:02;;;;;;;6.55;2.30;;;7.20;11.20;;;;;;5137154;27;20470;-63
2021/03/15 08:55:48;;;;;;;4.40;2.33;;;7.30;1.00;;;;;;5136834;27;20223;-63
2021/03/15 08:58:35;;;;;;;5.18;2.78;;;7.60;1.00;;;;;;5137319;27;20179;-62
2021/03/15 09:01:12;;;;;;;6.90;4.68;;;7.40;1.00;;;;;;5134849;27;20324;-64
2021/03/15 09:03:59;;;;;;;4.68;2.22;;;7.30;1.00;;;;;;5117736;27;20259;-64
2021/03/15 09:06:30;;;;;;;3.15;1.98;;;7.20;1.00;;;;;;5135385;27;20693;-65
2021/03/15 09:08:59;;;;;;;2.97;1.63;;;7.10;1.00;;;;;;5150183;27;20651;-63
2021/03/15 09:11:38;;;;;;;5.20;1.65;;;7.10;1.00;;;;;;5145590;27;20186;-64
2021/03/15 09:14:29;;;;;;;2.92;2.00;;;7.00;1.00;;;;;;5131813;27;20207;-65
2021/03/15 09:17:16;;;;;;;5.72;1.55;;;6.80;7.00;;;;;;5138051;27;20185;-68
2021/03/15 09:19:47;;;;;;;5.30;1.48;;;6.40;39.70;;;;;;5132641;27;20239;-65
2021/03/15 09:22:25;;;;;;;4.68;1.88;;;6.40;99.90;;;;;;5123394;27;20209;-62
2021/03/15 09:25:05;;;;;;;5.32;2.38;;;6.40;99.90;;;;;;5133267;27;20188;-62
2021/03/15 09:27:43;;;;;;;5.28;1.70;;;6.60;99.90;;;;;;5152390;27;20179;-64
2021/03/15 09:30:14;;;;;;;7.63;2.03;;;6.70;99.90;;;;;;5140343;27;20235;-62
2021/03/15 09:33:01;;;;;;;16.85;3.88;;;7.10;99.90;;;;;;5140704;27;20176;-64
2021/03/15 09:35:32;;;;;;;10.57;2.85;;;7.10;99.90;;;;;;5135428;27;20219;-64
2021/03/15 09:38:09;;;;;;;4.00;1.20;;;7.20;91.20;;;;;;5132123;27;20181;-60
2021/03/15 09:40:40;;;;;;;2.42;1.33;;;7.40;32.20;;;;;;5121685;27;20227;-61
2021/03/15 09:43:07;;;;;;;5.80;2.33;;;7.70;1.00;;;;;;5135001;27;20191;-61
2021/03/15 09:45:35;;;;;;;3.00;1.30;;;8.10;1.00;;;;;;5153026;27;20184;-59
2021/03/15 09:48:18;;;;;;;3.83;2.15;;;8.20;1.00;;;;;;5131202;27;20190;-65
2021/03/15 09:51:18;;;;;;;5.13;1.90;;;8.30;1.00;;;;;;5134001;28;20224;-64
2021/03/15 09:53:44;;;;;;;5.18;2.10;;;8.30;1.00;;;;;;5109837;28;20214;-60
2021/03/15 09:56:11;;;;;;;9.68;1.42;;;8.20;99.90;;;;;;5122847;27;20503;-62
2021/03/15 09:58:38;;;;;;;8.13;2.22;;;8.30;99.90;;;;;;5124582;27;20181;-61
2021/03/15 10:01:15;;;;;;;10.00;1.75;;;8.40;99.90;;;;;;5132608;27;20180;-61
2021/03/15 10:03:40;;;;;;;10.13;1.70;;;8.30;99.90;;;;;;5134542;27;20215;-61
2021/03/15 10:06:06;;;;;;;6.73;2.17;;;8.30;99.90;;;;;;5148532;27;20201;-64
2021/03/15 10:08:32;;;;;;;6.40;1.40;;;8.10;99.90;;;;;;5139754;27;20184;-62
2021/03/15 10:10:58;;;;;;;8.90;2.37;;;8.00;1.00;;;;;;5147758;27;20234;-61
2021/03/15 10:13:24;;;;;;;5.40;1.83;;;7.70;1.00;;;;;;5139088;27;20207;-65
2021/03/15 10:15:50;;;;;;;7.22;1.55;;;7.70;1.00;;;;;;5134942;27;20499;-61
2021/03/15 10:18:22;;;;;;;8.35;2.03;;;7.70;1.00;;;;;;5143835;27;20184;-63
2021/03/15 10:20:49;;;;;;;11.05;2.80;;;7.70;1.00;;;;;;5128148;27;20207;-61
2021/03/15 10:23:20;;;;;;;5.28;1.95;;;7.70;1.00;;;;;;5138477;27;20177;-64
2021/03/15 10:25:57;;;;;;;9.75;2.03;;;7.80;1.00;;;;;;5139025;27;20208;-64
2021/03/15 10:28:24;;;;;;;12.27;2.55;;;7.60;1.00;;;;;;5140182;27;20281;-64
2021/03/15 10:30:50;;;;;;;8.85;1.90;;;7.40;1.00;;;;;;5131990;27;20188;-63
2021/03/15 10:33:20;;;;;;;11.35;2.70;;;7.30;1.00;;;;;;5138611;27;20180;-63
2021/03/15 10:35:47;;;;;;;6.88;2.25;;;7.40;1.00;;;;;;5130381;27;20169;-64
2021/03/15 10:38:13;;;;;;;8.05;2.22;;;7.20;1.00;;;;;;5134883;27;20181;-62
2021/03/15 10:40:39;;;;;;;9.40;2.30;;;7.50;1.00;;;;;;5134040;27;20188;-61
2021/03/15 10:43:05;;;;;;;12.57;2.28;;;7.70;1.00;;;;;;5135493;27;20191;-61
2021/03/15 10:45:32;;;;;;;14.98;2.30;;;7.60;1.00;;;;;;5136611;27;20698;-64
2021/03/15 10:48:05;;;;;;;8.23;3.00;;;7.70;1.00;;;;;;5139341;27;20284;-62
2021/03/15 10:50:37;;;;;;;8.23;2.85;;;8.00;1.00;;;;;;5126092;27;20188;-61
2021/03/15 10:53:21;;;;;;;5.00;2.10;;;8.10;99.90;;;;;;5117330;28;20271;-62
2021/03/15 10:55:47;;;;;;;6.03;2.05;;;8.40;29.30;;;;;;5135010;27;20203;-61
2021/03/15 10:58:20;;;;;;;9.73;2.45;;;8.60;1.00;;;;;;5136829;27;20615;-63
2021/03/15 11:00:48;;;;;;;3.40;1.75;;;8.80;1.00;;;;;;5129615;27;20684;-61
2021/03/15 11:03:24;;;;;;;5.43;1.98;;;8.80;3.50;;;;;;5138016;27;20264;-60
2021/03/15 11:06:06;;;;;;;7.35;1.75;;;8.70;99.90;;;;;;5138494;27;20190;-62
2021/03/15 11:08:33;;;;;;;12.88;2.88;;;8.70;99.90;;;;;;5130782;27;20537;-60
2021/03/15 11:11:16;;;;;;;10.77;2.60;;;8.70;99.90;;;;;;5129763;27;20184;-60
2021/03/15 11:13:43;;;;;;;10.20;2.83;;;8.40;1.00;;;;;;5133861;27;20199;-64
2021/03/15 11:16:23;;;;;;;11.35;4.85;;;8.50;99.90;;;;;;5137700;27;20530;-64
2021/03/15 11:19:09;;;;;;;7.72;2.30;;;8.40;1.00;;;;;;5138364;27;20230;-63
2021/03/15 11:21:41;;;;;;;11.57;3.03;;;8.60;1.00;;;;;;5136982;27;20184;-63
2021/03/15 11:24:09;;;;;;;13.45;2.50;;;8.70;99.90;;;;;;5136037;27;20186;-63
2021/03/15 11:26:47;;;;;;;5.95;1.95;;;8.40;1.00;;;;;;5132092;27;20197;-61
2021/03/15 11:29:14;;;;;;;8.68;0.80;;;8.50;1.00;;;;;;5130562;27;20174;-60
2021/03/15 11:31:51;;;;;;;7.43;1.85;;;8.30;99.90;;;;;;5138190;27;20263;-60
2021/03/15 11:34:20;;;;;;;7.20;2.63;;;7.80;99.90;;;;;;5130770;27;20316;-62
2021/03/15 11:36:47;;;;;;;3.50;1.90;;;7.10;1.00;;;;;;5137437;27;20613;-63
2021/03/15 11:39:13;;;;;;;9.35;2.30;;;6.70;1.00;;;;;;5139486;27;20180;-64
2021/03/15 11:41:41;;;;;;;10.25;1.83;;;6.70;1.00;;;;;;5138052;27;20206;-61
2021/03/15 11:44:07;;;;;;;8.35;2.75;;;6.80;19.60;;;;;;5138364;27;20180;-61
2021/03/15 11:46:33;;;;;;;8.60;2.50;;;7.00;61.00;;;;;;5132049;27;20204;-61
2021/03/15 11:48:59;;;;;;;8.53;2.30;;;7.30;25.70;;;;;;5131678;27;20532;-61
2021/03/15 11:51:24;;;;;;;11.37;2.20;;;7.30;1.00;;;;;;5125446;27;20669;-61
2021/03/15 11:53:50;;;;;;;5.30;1.90;;;7.60;1.00;;;;;;5142388;27;20516;-62
2021/03/15 11:56:16;;;;;;;12.67;2.70;;;7.60;1.00;;;;;;5142186;27;20422;-64
2021/03/15 11:58:44;;;;;;;5.25;2.00;;;7.60;1.00;;;;;;5141789;27;20209;-61
2021/03/15 12:01:10;;;;;;;6.63;2.10;;;7.50;1.00;;;;;;5137454;27;20183;-63
2021/03/15 12:03:36;;;;;;;9.27;2.00;;;7.30;1.00;;;;;;5131694;27;20182;-64
2021/03/15 12:06:04;;;;;;;5.20;1.90;;;6.70;1.00;;;;;;5149554;27;20192;-62
2021/03/15 12:08:30;;;;;;;4.30;1.60;;;6.70;75.40;;;;;;5146876;27;20258;-68
2021/03/15 12:10:57;;;;;;;5.10;1.20;;;6.40;1.00;;;;;;5139762;27;20189;-64
2021/03/15 12:13:23;;;;;;;6.63;2.55;;;6.50;1.00;;;;;;5140745;27;20200;-64
2021/03/15 12:15:49;;;;;;;12.32;2.30;;;6.60;1.00;;;;;;5134177;27;20637;-68
2021/03/15 12:18:19;;;;;;;5.82;2.60;;;6.80;1.00;;;;;;5137483;27;20195;-60
2021/03/15 12:20:44;;;;;;;4.80;1.65;;;6.80;1.00;;;;;;5134179;27;20675;-63
2021/03/15 12:23:10;;;;;;;0.97;0.90;;;6.80;1.00;;;;;;5133474;27;20175;-64
2021/03/15 12:25:39;;;;;;;3.73;1.00;;;6.80;99.90;;;;;;5138136;27;20479;-64
2021/03/15 12:28:06;;;;;;;4.65;1.00;;;6.90;1.00;;;;;;5138808;27;20433;-62
2021/03/15 12:30:32;;;;;;;1.95;1.10;;;6.80;20.70;;;;;;5138675;27;20527;-63
2021/03/15 12:32:57;;;;;;;3.70;1.20;;;7.00;1.00;;;;;;5137258;27;20194;-64
2021/03/15 12:35:24;;;;;;;3.67;0.60;;;7.20;21.40;;;;;;5136929;27;20238;-61
2021/03/15 12:37:50;;;;;;;2.08;0.80;;;7.30;19.00;;;;;;5135912;27;20188;-64
2021/03/15 12:40:18;;;;;;;1.90;0.50;;;7.40;1.00;;;;;;5137883;27;20534;-65
2021/03/15 12:42:44;;;;;;;1.02;0.50;;;7.50;99.90;;;;;;5137416;27;20176;-64
2021/03/15 12:45:10;;;;;;;0.50;0.50;;;7.40;1.00;;;;;;5134339;27;20194;-64
2021/03/15 12:47:36;;;;;;;0.95;0.50;;;7.30;1.00;;;;;;5137962;27;20187;-64
2021/03/15 12:50:03;;;;;;;1.63;0.73;;;7.20;1.00;;;;;;5137737;27;20288;-66
2021/03/15 12:52:29;;;;;;;0.30;0.30;;;7.20;99.90;;;;;;5137860;27;20624;-64
2021/03/15 12:54:56;;;;;;;2.20;1.00;;;6.90;1.00;;;;;;5118906;27;20209;-65
2021/03/15 12:57:22;;;;;;;1.10;0.85;;;6.90;99.90;;;;;;5124728;27;20420;-65
2021/03/15 12:59:47;;;;;;;0.60;0.60;;;6.90;1.00;;;;;;5117160;28;20179;-64
2021/03/15 13:02:13;;;;;;;1.67;0.90;;;6.80;1.00;;;;;;5117267;28;20260;-64
2021/03/15 13:04:39;;;;;;;1.87;0.70;;;6.80;99.90;;;;;;5116952;28;20224;-63
2021/03/15 13:07:05;;;;;;;1.07;0.60;;;6.90;1.00;;;;;;5116501;28;20202;-65
2021/03/15 13:09:30;;;;;;;2.90;0.83;;;7.00;28.80;;;;;;5117508;28;20246;-64
2021/03/15 13:11:56;;;;;;;0.70;0.50;;;6.80;99.90;;;;;;5117850;28;20429;-62
2021/03/15 13:14:23;;;;;;;0.70;0.60;;;6.70;1.00;;;;;;5128334;27;20208;-61
2021/03/15 13:16:49;;;;;;;1.10;0.80;;;6.70;1.00;;;;;;5128415;27;20442;-62
2021/03/15 13:19:15;;;;;;;2.50;0.85;;;6.80;99.90;;;;;;5134155;27;20184;-64